createdAt,value
2016-12-19T00:00:57.595Z,22.59
2016-12-19T00:02:01.049Z,22.62
2016-12-19T00:03:04.503Z,22.68
2016-12-19T00:04:07.958Z,22.73
2016-12-19T00:05:11.404Z,22.66
2016-12-19T00:06:14.853Z,22.69
2016-12-19T00:07:18.296Z,22.62
2016-12-19T00:08:21.747Z,22.62
2016-12-19T00:09:25.192Z,22.69
2016-12-19T00:10:28.645Z,22.65
2016-12-19T00:11:32.100Z,22.57
2016-12-19T00:12:35.554Z,22.63
2016-12-19T00:13:39.007Z,22.68
2016-12-19T00:14:42.465Z,22.63
2016-12-19T00:15:45.916Z,22.57
2016-12-19T00:16:49.369Z,22.62
2016-12-19T00:17:52.829Z,22.69
2016-12-19T00:18:56.277Z,22.7
2016-12-19T00:19:59.724Z,22.69
2016-12-19T00:21:03.171Z,22.69
2016-12-19T00:22:06.615Z,22.65
2016-12-19T00:23:10.068Z,22.62
2016-12-19T00:24:13.513Z,22.66
2016-12-19T00:25:16.965Z,22.69
2016-12-19T00:26:20.421Z,22.68
2016-12-19T00:27:23.874Z,22.66
2016-12-19T00:28:27.327Z,22.66
2016-12-19T00:29:30.782Z,22.65
2016-12-19T00:30:34.237Z,22.72
2016-12-19T00:31:37.690Z,22.73
2016-12-19T00:32:41.134Z,22.72
2016-12-19T00:33:44.575Z,22.59
2016-12-19T00:34:48.031Z,22.62
2016-12-19T00:35:51.480Z,22.65
2016-12-19T00:36:54.930Z,22.63
2016-12-19T00:37:58.388Z,22.62
2016-12-19T00:39:01.833Z,22.62
2016-12-19T00:40:05.285Z,22.73
2016-12-19T00:41:08.740Z,22.68
2016-12-19T00:42:12.195Z,22.6
2016-12-19T00:43:15.649Z,22.54
2016-12-19T00:44:19.105Z,22.62
2016-12-19T00:45:22.557Z,22.72
2016-12-19T00:46:26.004Z,22.6
2016-12-19T00:47:29.451Z,22.65
2016-12-19T00:48:32.891Z,22.62
2016-12-19T00:49:36.345Z,22.76
2016-12-19T00:50:39.793Z,22.69
2016-12-19T00:51:43.245Z,22.65
2016-12-19T00:52:46.703Z,22.6
2016-12-19T00:53:50.153Z,22.68
2016-12-19T00:54:53.607Z,22.69
2016-12-19T00:55:57.051Z,22.6
2016-12-19T00:57:00.492Z,22.65
2016-12-19T00:58:03.945Z,22.75
2016-12-19T00:59:07.390Z,22.59
2016-12-19T01:00:10.843Z,22.65
2016-12-19T01:01:14.297Z,22.68
2016-12-19T01:02:17.751Z,22.59
2016-12-19T01:03:21.203Z,22.7
2016-12-19T01:04:24.659Z,22.65
2016-12-19T01:05:28.112Z,22.59
2016-12-19T01:06:31.566Z,22.63
2016-12-19T01:07:35.020Z,22.63
2016-12-19T01:08:38.474Z,22.66
2016-12-19T01:09:41.927Z,22.63
2016-12-19T01:10:45.382Z,22.65
2016-12-19T01:11:48.836Z,22.63
2016-12-19T01:12:52.291Z,22.66
2016-12-19T01:13:55.744Z,22.69
2016-12-19T01:14:59.198Z,22.62
2016-12-19T01:16:02.650Z,22.66
2016-12-19T01:17:06.104Z,22.69
2016-12-19T01:18:09.559Z,22.63
2016-12-19T01:19:13.016Z,22.65
2016-12-19T01:20:16.467Z,22.69
2016-12-19T01:21:19.921Z,22.62
2016-12-19T01:22:23.368Z,22.59
2016-12-19T01:23:26.815Z,22.59
2016-12-19T01:24:30.258Z,22.66
2016-12-19T01:25:33.714Z,22.63
2016-12-19T01:26:37.158Z,22.66
2016-12-19T01:27:40.615Z,22.69
2016-12-19T01:28:44.075Z,22.68
2016-12-19T01:29:47.519Z,22.62
2016-12-19T01:30:50.979Z,22.66
2016-12-19T01:31:54.438Z,22.62
2016-12-19T01:32:57.881Z,22.6
2016-12-19T01:34:01.337Z,22.62
2016-12-19T01:35:04.799Z,22.62
2016-12-19T01:36:08.243Z,22.59
2016-12-19T01:37:11.700Z,22.65
2016-12-19T01:38:15.161Z,22.65
2016-12-19T01:39:18.604Z,22.66
2016-12-19T01:40:22.057Z,22.65
2016-12-19T01:41:25.512Z,22.68
2016-12-19T01:42:28.965Z,22.63
2016-12-19T01:43:32.418Z,22.6
2016-12-19T01:44:35.874Z,22.65
2016-12-19T01:45:39.327Z,22.65
2016-12-19T01:46:42.780Z,22.66
2016-12-19T01:47:46.236Z,22.55
2016-12-19T01:48:49.688Z,22.66
2016-12-19T01:49:53.141Z,22.69
2016-12-19T01:50:56.597Z,22.63
2016-12-19T01:52:00.050Z,22.57
2016-12-19T01:53:03.503Z,22.65
2016-12-19T01:54:06.961Z,22.65
2016-12-19T01:55:10.412Z,22.7
2016-12-19T01:56:13.864Z,22.63
2016-12-19T01:57:17.325Z,22.68
2016-12-19T01:58:20.773Z,22.63
2016-12-19T01:59:24.227Z,22.6
2016-12-19T02:00:27.682Z,22.63
2016-12-19T02:01:31.135Z,22.63
2016-12-19T02:02:34.582Z,22.68
2016-12-19T02:03:38.032Z,22.63
2016-12-19T02:04:41.476Z,22.73
2016-12-19T02:05:44.932Z,22.66
2016-12-19T02:06:48.382Z,22.66
2016-12-19T02:07:51.830Z,22.65
2016-12-19T02:08:55.288Z,22.63
2016-12-19T02:09:59.330Z,22.66
2016-12-19T02:11:27.006Z,22.65
2016-12-19T02:12:30.454Z,22.63
2016-12-19T02:13:33.907Z,22.59
2016-12-19T02:14:37.362Z,22.65
2016-12-19T02:15:40.809Z,22.62
2016-12-19T02:16:44.256Z,22.65
2016-12-19T02:17:47.700Z,22.59
2016-12-19T02:18:51.152Z,22.65
2016-12-19T02:19:54.598Z,22.59
2016-12-19T02:20:58.044Z,22.65
2016-12-19T02:22:01.495Z,22.66
2016-12-19T02:23:04.935Z,22.62
2016-12-19T02:24:08.392Z,22.63
2016-12-19T02:25:11.833Z,22.63
2016-12-19T02:26:15.287Z,22.65
2016-12-19T02:27:18.730Z,22.59
2016-12-19T02:28:22.172Z,22.75
2016-12-19T02:29:25.628Z,22.62
2016-12-19T02:30:29.083Z,22.66
2016-12-19T02:31:32.528Z,22.63
2016-12-19T02:32:35.987Z,22.66
2016-12-19T02:33:39.430Z,22.6
2016-12-19T02:34:42.884Z,22.62
2016-12-19T02:35:46.338Z,22.69
2016-12-19T02:36:49.792Z,22.63
2016-12-19T02:37:53.243Z,22.66
2016-12-19T02:38:56.686Z,22.66
2016-12-19T02:40:00.129Z,22.66
2016-12-19T02:41:03.587Z,22.63
2016-12-19T02:42:07.028Z,22.62
2016-12-19T02:43:10.480Z,22.68
2016-12-19T02:44:13.936Z,22.63
2016-12-19T02:45:17.389Z,22.68
2016-12-19T02:46:20.842Z,22.65
2016-12-19T02:47:24.300Z,22.63
2016-12-19T02:48:27.751Z,22.66
2016-12-19T02:49:31.204Z,22.68
2016-12-19T02:50:34.659Z,22.68
2016-12-19T02:51:38.112Z,22.63
2016-12-19T02:52:41.565Z,22.63
2016-12-19T02:53:45.010Z,22.59
2016-12-19T02:54:48.453Z,22.62
2016-12-19T02:55:51.910Z,22.6
2016-12-19T02:56:55.353Z,22.6
2016-12-19T02:57:58.806Z,22.62
2016-12-19T02:59:02.267Z,22.66
2016-12-19T03:00:05.709Z,22.62
2016-12-19T03:01:09.163Z,22.66
2016-12-19T03:02:12.623Z,22.62
2016-12-19T03:03:16.071Z,22.72
2016-12-19T03:04:19.524Z,22.62
2016-12-19T03:05:22.978Z,22.72
2016-12-19T03:06:26.433Z,22.62
2016-12-19T03:07:29.879Z,22.62
2016-12-19T03:08:33.327Z,22.66
2016-12-19T03:09:36.771Z,22.62
2016-12-19T03:10:40.225Z,22.59
2016-12-19T03:11:43.669Z,22.62
2016-12-19T03:12:47.127Z,22.62
2016-12-19T03:13:50.586Z,22.65
2016-12-19T03:14:54.030Z,22.63
2016-12-19T03:15:57.484Z,22.66
2016-12-19T03:17:00.940Z,22.62
2016-12-19T03:18:04.391Z,22.62
2016-12-19T03:19:07.838Z,22.62
2016-12-19T03:20:11.287Z,22.66
2016-12-19T03:21:14.732Z,22.7
2016-12-19T03:22:18.186Z,22.59
2016-12-19T03:23:21.628Z,22.6
2016-12-19T03:24:25.079Z,22.59
2016-12-19T03:25:28.534Z,22.62
2016-12-19T03:26:31.988Z,22.59
2016-12-19T03:27:35.441Z,22.59
2016-12-19T03:28:38.897Z,22.6
2016-12-19T03:29:42.989Z,22.59
2016-12-19T03:30:46.430Z,22.6
2016-12-19T03:31:49.884Z,22.63
2016-12-19T03:32:53.327Z,22.6
2016-12-19T03:33:56.786Z,22.63
2016-12-19T03:35:00.242Z,22.6
2016-12-19T03:36:03.688Z,22.59
2016-12-19T03:37:07.140Z,22.65
2016-12-19T03:38:10.601Z,22.6
2016-12-19T03:39:14.049Z,22.66
2016-12-19T03:40:17.502Z,22.63
2016-12-19T03:41:20.959Z,22.62
2016-12-19T03:42:24.411Z,22.63
2016-12-19T03:43:27.856Z,22.66
2016-12-19T03:44:31.306Z,22.65
2016-12-19T03:45:34.747Z,22.57
2016-12-19T03:46:38.202Z,22.69
2016-12-19T03:47:41.646Z,22.59
2016-12-19T03:48:45.100Z,22.6
2016-12-19T03:49:48.555Z,22.65
2016-12-19T03:50:52.008Z,22.63
2016-12-19T03:51:55.456Z,22.62
2016-12-19T03:52:58.904Z,22.66
2016-12-19T03:54:02.346Z,22.59
2016-12-19T03:55:05.799Z,22.6
2016-12-19T03:56:09.244Z,22.69
2016-12-19T03:57:12.696Z,22.62
2016-12-19T03:58:16.154Z,22.6
2016-12-19T03:59:19.605Z,22.62
2016-12-19T04:00:23.051Z,22.62
2016-12-19T04:01:26.501Z,22.63
2016-12-19T04:02:29.944Z,22.59
2016-12-19T04:03:33.398Z,22.62
2016-12-19T04:04:36.841Z,22.6
2016-12-19T04:05:40.293Z,22.62
2016-12-19T04:06:43.738Z,22.68
2016-12-19T04:07:47.180Z,22.62
2016-12-19T04:08:50.631Z,22.6
2016-12-19T04:09:54.076Z,22.62
2016-12-19T04:10:57.528Z,22.6
2016-12-19T04:12:00.990Z,22.63
2016-12-19T04:13:04.438Z,22.66
2016-12-19T04:14:07.891Z,22.66
2016-12-19T04:15:11.345Z,22.66
2016-12-19T04:16:14.799Z,22.53
2016-12-19T04:17:18.246Z,22.65
2016-12-19T04:18:21.697Z,22.59
2016-12-19T04:19:25.138Z,22.6
2016-12-19T04:20:28.592Z,22.62
2016-12-19T04:21:32.037Z,22.62
2016-12-19T04:22:35.493Z,22.65
2016-12-19T04:23:38.949Z,22.6
2016-12-19T04:24:42.396Z,22.53
2016-12-19T04:25:45.850Z,22.62
2016-12-19T04:26:49.305Z,22.59
2016-12-19T04:27:52.758Z,22.59
2016-12-19T04:28:56.203Z,22.6
2016-12-19T04:29:59.653Z,22.54
2016-12-19T04:31:03.095Z,22.6
2016-12-19T04:32:06.549Z,22.54
2016-12-19T04:33:09.993Z,22.55
2016-12-19T04:34:13.446Z,22.55
2016-12-19T04:35:16.904Z,22.62
2016-12-19T04:36:20.355Z,22.63
2016-12-19T04:37:23.808Z,22.57
2016-12-19T04:38:27.263Z,22.54
2016-12-19T04:39:30.716Z,22.65
2016-12-19T04:40:34.170Z,22.53
2016-12-19T04:41:37.624Z,22.54
2016-12-19T04:42:41.078Z,22.62
2016-12-19T04:43:44.525Z,22.6
2016-12-19T04:44:47.974Z,22.57
2016-12-19T04:45:51.421Z,22.59
2016-12-19T04:46:54.873Z,22.62
2016-12-19T04:47:58.322Z,22.63
2016-12-19T04:49:01.774Z,22.59
2016-12-19T04:50:05.233Z,22.53
2016-12-19T04:51:08.675Z,22.62
2016-12-19T04:52:12.128Z,22.65
2016-12-19T04:53:15.584Z,22.51
2016-12-19T04:54:19.037Z,22.63
2016-12-19T04:55:22.484Z,22.6
2016-12-19T04:56:25.933Z,22.57
2016-12-19T04:57:29.377Z,22.51
2016-12-19T04:58:32.836Z,22.51
2016-12-19T04:59:36.279Z,22.62
2016-12-19T05:00:39.730Z,22.57
2016-12-19T05:01:43.194Z,22.6
2016-12-19T05:02:46.643Z,22.57
2016-12-19T05:03:50.095Z,22.51
2016-12-19T05:04:53.554Z,22.04
2016-12-19T05:05:56.997Z,21.5
2016-12-19T05:07:00.456Z,21.07
2016-12-19T05:08:03.919Z,20.77
2016-12-19T05:09:07.366Z,20.65
2016-12-19T05:10:10.814Z,20.67
2016-12-19T05:11:14.259Z,20.87
2016-12-19T05:12:17.710Z,20.99
2016-12-19T05:13:21.167Z,21.05
2016-12-19T05:14:24.614Z,21.06
2016-12-19T05:15:28.056Z,20.95
2016-12-19T05:16:31.508Z,21
2016-12-19T05:17:34.955Z,21.06
2016-12-19T05:18:38.408Z,21.05
2016-12-19T05:19:41.863Z,20.95
2016-12-19T05:20:45.316Z,21
2016-12-19T05:21:48.770Z,20.9
2016-12-19T05:22:52.225Z,20.96
2016-12-19T05:23:55.679Z,21
2016-12-19T05:24:59.124Z,21.09
2016-12-19T05:26:02.574Z,21.27
2016-12-19T05:27:06.019Z,21.39
2016-12-19T05:28:09.473Z,21.54
2016-12-19T05:29:12.915Z,21.5
2016-12-19T05:30:16.371Z,21.67
2016-12-19T05:31:19.839Z,21.62
2016-12-19T05:32:23.277Z,21.73
2016-12-19T05:33:26.730Z,21.76
2016-12-19T05:34:30.183Z,21.79
2016-12-19T05:35:33.637Z,21.88
2016-12-19T05:36:37.091Z,21.83
2016-12-19T05:37:40.550Z,21.89
2016-12-19T05:38:43.999Z,21.75
2016-12-19T05:39:47.446Z,21.85
2016-12-19T05:40:50.894Z,21.93
2016-12-19T05:41:54.340Z,21.91
2016-12-19T05:42:57.797Z,21.92
2016-12-19T05:44:01.241Z,21.95
2016-12-19T05:45:04.692Z,21.96
2016-12-19T05:46:08.153Z,21.96
2016-12-19T05:47:11.597Z,21.95
2016-12-19T05:48:15.056Z,22.02
2016-12-19T05:49:18.516Z,22.02
2016-12-19T05:50:21.962Z,22.02
2016-12-19T05:51:25.418Z,21.99
2016-12-19T05:52:28.879Z,22.11
2016-12-19T05:53:32.346Z,22.13
2016-12-19T05:54:35.780Z,22.06
2016-12-19T05:55:39.246Z,22.06
2016-12-19T05:56:42.686Z,22.04
2016-12-19T05:57:46.139Z,22.11
2016-12-19T05:58:49.600Z,22.14
2016-12-19T05:59:53.044Z,22.11
2016-12-19T06:00:56.504Z,22.08
2016-12-19T06:01:59.966Z,22.2
2016-12-19T06:03:03.403Z,22.1
2016-12-19T06:04:06.858Z,22.23
2016-12-19T06:05:10.318Z,22.1
2016-12-19T06:06:13.783Z,22.11
2016-12-19T06:07:17.223Z,22.18
2016-12-19T06:08:20.686Z,22.22
2016-12-19T06:09:24.131Z,22.25
2016-12-19T06:10:27.588Z,22.18
2016-12-19T06:11:31.047Z,22.2
2016-12-19T06:12:34.493Z,22.18
2016-12-19T06:13:37.949Z,22.22
2016-12-19T06:14:41.407Z,22.17
2016-12-19T06:15:44.863Z,22.2
2016-12-19T06:16:56.401Z,22.2
2016-12-19T06:17:59.856Z,22.17
2016-12-19T06:19:03.302Z,22.15
2016-12-19T06:20:06.757Z,22.25
2016-12-19T06:21:10.211Z,22.18
2016-12-19T06:22:13.661Z,22.14
2016-12-19T06:23:17.111Z,22.04
2016-12-19T06:24:20.555Z,22.04
2016-12-19T06:25:23.998Z,22.08
2016-12-19T06:26:27.470Z,22.06
2016-12-19T06:27:30.922Z,22.11
2016-12-19T06:28:34.367Z,22.1
2016-12-19T06:29:37.833Z,22.15
2016-12-19T06:30:41.278Z,22.26
2016-12-19T06:31:44.725Z,22.29
2016-12-19T06:32:48.189Z,22.29
2016-12-19T06:33:51.622Z,22.36
2016-12-19T06:34:55.087Z,22.36
2016-12-19T06:35:58.556Z,22.29
2016-12-19T06:37:02.010Z,22.26
2016-12-19T06:38:05.470Z,22.23
2016-12-19T06:39:08.926Z,22.18
2016-12-19T06:40:12.378Z,22.28
2016-12-19T06:41:15.832Z,22.22
2016-12-19T06:42:19.291Z,22.23
2016-12-19T06:43:22.741Z,22.29
2016-12-19T06:44:26.197Z,22.29
2016-12-19T06:45:29.651Z,22.25
2016-12-19T06:46:33.103Z,22.3
2016-12-19T06:47:36.555Z,22.35
2016-12-19T06:48:40.016Z,22.39
2016-12-19T06:49:43.492Z,22.44
2016-12-19T06:50:46.937Z,22.44
2016-12-19T06:51:50.380Z,22.5
2016-12-19T06:52:53.840Z,22.54
2016-12-19T06:53:57.298Z,22.43
2016-12-19T06:55:00.748Z,22.51
2016-12-19T06:56:04.202Z,22.51
2016-12-19T06:57:07.665Z,22.55
2016-12-19T06:58:11.120Z,22.53
2016-12-19T06:59:14.563Z,22.65
2016-12-19T07:00:18.023Z,22.65
2016-12-19T07:01:21.471Z,22.57
2016-12-19T07:02:24.918Z,22.66
2016-12-19T07:03:28.367Z,22.62
2016-12-19T07:04:31.827Z,22.68
2016-12-19T07:05:35.284Z,22.65
2016-12-19T07:06:38.729Z,22.68
2016-12-19T07:07:42.187Z,22.66
2016-12-19T07:08:45.649Z,22.72
2016-12-19T07:09:49.105Z,22.62
2016-12-19T07:10:52.553Z,22.62
2016-12-19T07:11:56.009Z,22.65
2016-12-19T07:12:59.467Z,22.73
2016-12-19T07:14:02.908Z,22.73
2016-12-19T07:15:06.386Z,22.76
2016-12-19T07:16:09.812Z,22.81
2016-12-19T07:17:13.265Z,22.8
2016-12-19T07:18:16.723Z,22.85
2016-12-19T07:19:20.174Z,22.9
2016-12-19T07:20:23.636Z,22.9
2016-12-19T07:21:27.100Z,22.88
2016-12-19T07:22:30.564Z,22.93
2016-12-19T07:23:34.031Z,22.91
2016-12-19T07:24:37.510Z,22.94
2016-12-19T07:25:40.965Z,22.99
2016-12-19T07:26:44.441Z,22.91
2016-12-19T07:27:47.922Z,23.03
2016-12-19T07:28:51.370Z,23.02
2016-12-19T07:29:54.825Z,23.09
2016-12-19T07:30:58.285Z,23
2016-12-19T07:32:01.740Z,23.05
2016-12-19T07:33:05.669Z,23.06
2016-12-19T07:35:36.907Z,23.1
2016-12-19T07:36:40.358Z,23.1
2016-12-19T07:37:43.820Z,23.17
2016-12-19T07:39:13.196Z,23.08
2016-12-19T07:40:16.646Z,23.15
2016-12-19T07:41:20.111Z,23.12
2016-12-19T07:42:23.561Z,23.25
2016-12-19T07:43:27.011Z,23.28
2016-12-19T07:44:32.283Z,23.25
2016-12-19T07:45:35.748Z,23.32
2016-12-19T07:46:39.188Z,23.32
2016-12-19T07:47:42.645Z,23.36
2016-12-19T07:49:12.619Z,23.32
2016-12-19T07:50:43.132Z,23.32
2016-12-19T07:51:46.568Z,23.36
2016-12-19T07:52:50.016Z,23.27
2016-12-19T07:53:53.468Z,23.39
2016-12-19T07:54:56.928Z,23.32
2016-12-19T07:56:00.387Z,23.34
2016-12-19T07:57:03.855Z,23.37
2016-12-19T07:58:07.318Z,23.36
2016-12-19T07:59:10.784Z,23.39
2016-12-19T08:00:14.943Z,23.39
2016-12-19T08:01:43.360Z,23.41
2016-12-19T08:02:46.803Z,23.46
2016-12-19T08:03:50.255Z,23.54
2016-12-19T08:04:53.714Z,23.41
2016-12-19T08:05:57.189Z,23.51
2016-12-19T08:07:00.644Z,23.48
2016-12-19T08:08:04.115Z,23.5
2016-12-19T08:09:07.558Z,23.48
2016-12-19T08:12:41.788Z,23.55
2016-12-19T08:13:46.173Z,23.5
2016-12-19T08:14:49.630Z,23.5
2016-12-19T08:15:53.078Z,23.55
2016-12-19T08:16:56.518Z,23.5
2016-12-19T08:17:59.977Z,23.5
2016-12-19T08:19:03.422Z,23.48
2016-12-19T08:20:06.879Z,23.47
2016-12-19T08:21:10.343Z,23.46
2016-12-19T08:22:13.787Z,23.48
2016-12-19T08:23:17.240Z,23.46
2016-12-19T08:24:20.696Z,23.46
2016-12-19T08:25:24.143Z,23.51
2016-12-19T08:26:27.603Z,23.63
2016-12-19T08:27:31.077Z,23.74
2016-12-19T08:28:34.519Z,23.76
2016-12-19T08:29:37.963Z,23.84
2016-12-19T08:30:41.412Z,23.88
2016-12-19T08:31:44.862Z,24.02
2016-12-19T08:32:48.326Z,23.99
2016-12-19T08:33:51.785Z,23.87
2016-12-19T08:34:55.227Z,23.84
2016-12-19T08:35:58.677Z,23.95
2016-12-19T08:37:02.122Z,23.91
2016-12-19T08:38:05.568Z,23.95
2016-12-19T08:39:36.110Z,23.96
2016-12-19T08:40:39.552Z,23.96
2016-12-19T08:41:43.007Z,23.96
2016-12-19T08:42:46.454Z,24.02
2016-12-19T08:43:49.902Z,24.11
2016-12-19T08:44:53.361Z,24.01
2016-12-19T08:45:56.806Z,24.1
2016-12-19T08:47:26.763Z,24.1
2016-12-19T08:48:30.213Z,24.14
2016-12-19T08:49:33.666Z,24.1
2016-12-19T08:50:37.126Z,24.1
2016-12-19T08:51:40.567Z,24.11
2016-12-19T08:52:44.036Z,24.1
2016-12-19T08:53:47.486Z,24.11
2016-12-19T08:54:50.925Z,24.16
2016-12-19T08:55:54.385Z,24.18
2016-12-19T08:56:57.833Z,24.06
2016-12-19T08:58:01.285Z,24.17
2016-12-19T08:59:04.759Z,24.3
2016-12-19T09:00:08.210Z,24.32
2016-12-19T09:01:11.659Z,24.33
2016-12-19T09:02:41.610Z,24.24
2016-12-19T09:03:45.060Z,24.21
2016-12-19T09:04:48.516Z,24.3
2016-12-19T09:05:51.971Z,24.13
2016-12-19T09:06:55.430Z,24.21
2016-12-19T09:09:27.493Z,24.14
2016-12-19T09:10:30.938Z,24.01
2016-12-19T09:11:34.389Z,24.14
2016-12-19T09:12:37.835Z,24.18
2016-12-19T09:13:41.301Z,24.11
2016-12-19T09:14:44.749Z,24.18
2016-12-19T09:15:48.189Z,24.11
2016-12-19T09:16:57.573Z,24.14
2016-12-19T09:18:01.871Z,24.14
2016-12-19T09:19:05.342Z,24.05
2016-12-19T09:20:08.798Z,24.05
2016-12-19T09:21:12.254Z,24.14
2016-12-19T09:22:15.702Z,24.11
2016-12-19T09:23:19.153Z,24.14
2016-12-19T09:24:22.617Z,24.11
2016-12-19T09:25:26.075Z,24.13
2016-12-19T09:26:29.514Z,24.13
2016-12-19T09:27:32.966Z,24.1
2016-12-19T09:28:37.377Z,24.1
2016-12-19T09:30:04.651Z,24.13
2016-12-19T09:31:08.099Z,24.11
2016-12-19T09:32:11.563Z,24.18
2016-12-19T09:33:15.016Z,24.24
2016-12-19T09:34:18.498Z,24.35
2016-12-19T09:35:21.951Z,24.3
2016-12-19T09:36:25.394Z,24.36
2016-12-19T09:38:01.324Z,24.35
2016-12-19T09:39:04.773Z,24.43
2016-12-19T09:40:15.292Z,24.43
2016-12-19T09:41:18.755Z,24.47
2016-12-19T09:42:22.221Z,24.45
2016-12-19T09:43:52.185Z,24.43
2016-12-19T09:44:55.646Z,24.47
2016-12-19T09:45:59.094Z,24.47
2016-12-19T09:47:02.549Z,24.43
2016-12-19T09:48:06.001Z,24.45
2016-12-19T09:49:09.458Z,24.47
2016-12-19T09:50:12.921Z,24.47
2016-12-19T09:51:16.374Z,24.43
2016-12-19T09:52:19.831Z,24.57
2016-12-19T09:53:23.274Z,24.6
2016-12-19T09:54:26.724Z,24.6
2016-12-19T09:55:30.186Z,24.6
2016-12-19T09:56:33.639Z,24.63
2016-12-19T09:57:37.099Z,24.6
2016-12-19T09:58:40.555Z,24.57
2016-12-19T09:59:44.002Z,24.54
2016-12-19T10:00:47.456Z,24.55
2016-12-19T10:01:50.901Z,24.57
2016-12-19T10:02:54.357Z,24.58
2016-12-19T10:03:58.765Z,24.57
2016-12-19T10:05:02.212Z,24.57
2016-12-19T10:06:05.669Z,24.55
2016-12-19T10:07:09.098Z,24.53
2016-12-19T10:08:12.558Z,24.57
2016-12-19T10:09:16.000Z,24.55
2016-12-19T10:10:19.463Z,24.58
2016-12-19T10:11:22.913Z,24.58
2016-12-19T10:12:26.366Z,24.58
2016-12-19T10:13:29.820Z,24.58
2016-12-19T10:14:33.280Z,24.54
2016-12-19T10:15:36.733Z,24.58
2016-12-19T10:16:40.203Z,24.58
2016-12-19T10:17:43.658Z,24.58
2016-12-19T10:18:47.115Z,24.61
2016-12-19T10:19:50.552Z,24.61
2016-12-19T10:20:54.022Z,24.66
2016-12-19T10:21:57.468Z,24.66
2016-12-19T10:23:00.907Z,24.68
2016-12-19T10:24:04.362Z,24.73
2016-12-19T10:25:07.811Z,24.8
2016-12-19T10:26:11.271Z,24.65
2016-12-19T10:27:14.735Z,24.69
2016-12-19T10:28:18.190Z,24.58
2016-12-19T10:29:21.633Z,24.7
2016-12-19T10:30:25.089Z,24.61
2016-12-19T10:31:28.534Z,24.69
2016-12-19T10:32:31.993Z,24.78
2016-12-19T10:33:35.452Z,24.66
2016-12-19T10:34:38.897Z,24.73
2016-12-19T10:35:42.354Z,24.74
2016-12-19T10:36:45.842Z,24.78
2016-12-19T10:37:49.295Z,24.65
2016-12-19T10:38:52.753Z,24.73
2016-12-19T10:39:56.199Z,24.69
2016-12-19T10:40:59.660Z,24.66
2016-12-19T10:42:03.107Z,24.6
2016-12-19T10:43:06.564Z,24.63
2016-12-19T10:44:10.033Z,24.55
2016-12-19T10:45:13.470Z,24.57
2016-12-19T10:46:16.926Z,24.57
2016-12-19T10:47:20.403Z,24.48
2016-12-19T10:48:23.851Z,24.57
2016-12-19T10:49:27.320Z,24.54
2016-12-19T10:50:30.769Z,24.55
2016-12-19T10:51:34.213Z,24.65
2016-12-19T10:52:37.662Z,24.69
2016-12-19T10:53:41.115Z,24.74
2016-12-19T10:54:44.566Z,24.68
2016-12-19T10:55:48.013Z,24.73
2016-12-19T10:56:51.466Z,24.66
2016-12-19T10:57:54.917Z,24.73
2016-12-19T10:58:58.370Z,24.68
2016-12-19T11:00:01.821Z,24.6
2016-12-19T11:01:05.278Z,24.58
2016-12-19T11:02:08.736Z,24.54
2016-12-19T11:03:12.187Z,24.54
2016-12-19T11:04:15.640Z,24.55
2016-12-19T11:05:19.095Z,24.57
2016-12-19T11:06:22.537Z,24.47
2016-12-19T11:07:26.002Z,24.51
2016-12-19T11:08:29.455Z,24.45
2016-12-19T11:09:32.913Z,24.48
2016-12-19T11:11:02.858Z,24.47
2016-12-19T11:12:06.331Z,24.4
2016-12-19T11:13:09.781Z,24.42
2016-12-19T11:14:13.222Z,24.4
2016-12-19T11:15:16.692Z,24.36
2016-12-19T11:17:47.777Z,24.38
2016-12-19T11:18:51.240Z,24.35
2016-12-19T11:19:54.703Z,24.36
2016-12-19T11:20:58.137Z,24.36
2016-12-19T11:22:01.598Z,24.33
2016-12-19T11:23:05.084Z,24.29
2016-12-19T11:24:08.528Z,24.24
2016-12-19T11:25:11.976Z,24.29
2016-12-19T11:26:15.437Z,24.29
2016-12-19T11:27:18.875Z,24.32
2016-12-19T11:28:49.773Z,24.35
2016-12-19T11:31:21.242Z,24.39
2016-12-19T11:32:24.699Z,24.36
2016-12-19T11:33:28.153Z,24.43
2016-12-19T11:34:31.604Z,24.42
2016-12-19T11:35:35.093Z,24.47
2016-12-19T11:36:38.547Z,24.4
2016-12-19T11:37:42.016Z,24.51
2016-12-19T11:38:45.455Z,24.51
2016-12-19T11:39:48.908Z,24.5
2016-12-19T11:40:52.354Z,24.6
2016-12-19T11:41:55.815Z,24.65
2016-12-19T11:42:59.264Z,24.61
2016-12-19T11:44:02.718Z,24.55
2016-12-19T11:45:33.238Z,24.57
2016-12-19T11:46:36.699Z,24.54
2016-12-19T11:47:40.165Z,24.55
2016-12-19T11:48:43.622Z,24.54
2016-12-19T11:49:47.069Z,24.58
2016-12-19T11:50:50.524Z,24.53
2016-12-19T11:51:53.995Z,24.54
2016-12-19T11:52:57.451Z,24.54
2016-12-19T11:54:00.915Z,24.53
2016-12-19T11:55:04.371Z,24.51
2016-12-19T11:56:07.835Z,24.66
2016-12-19T11:57:11.287Z,24.63
2016-12-19T11:58:14.730Z,24.57
2016-12-19T11:59:18.187Z,24.6
2016-12-19T12:00:48.179Z,24.55
2016-12-19T12:01:51.623Z,24.6
2016-12-19T12:02:55.091Z,24.68
2016-12-19T12:03:58.544Z,24.61
2016-12-19T12:05:02.010Z,24.65
2016-12-19T12:06:05.472Z,24.61
2016-12-19T12:08:37.532Z,24.66
2016-12-19T12:09:47.714Z,24.65
2016-12-19T12:11:15.138Z,24.68
2016-12-19T12:12:18.596Z,24.51
2016-12-19T12:13:22.103Z,24.53
2016-12-19T12:14:25.559Z,24.51
2016-12-19T12:15:29.008Z,24.53
2016-12-19T12:16:32.464Z,24.54
2016-12-19T12:17:35.918Z,24.54
2016-12-19T12:18:39.378Z,24.63
2016-12-19T12:19:42.840Z,24.54
2016-12-19T12:20:46.317Z,24.65
2016-12-19T12:21:49.794Z,24.76
2016-12-19T12:22:53.254Z,24.73
2016-12-19T12:23:56.719Z,24.78
2016-12-19T12:25:00.157Z,24.78
2016-12-19T12:26:03.614Z,24.73
2016-12-19T12:27:07.068Z,24.78
2016-12-19T12:28:10.519Z,24.84
2016-12-19T12:29:14.011Z,24.92
2016-12-19T12:30:17.487Z,24.93
2016-12-19T12:31:49.337Z,24.81
2016-12-19T12:32:52.788Z,24.84
2016-12-19T12:33:56.232Z,24.86
2016-12-19T12:34:59.700Z,24.89
2016-12-19T12:36:03.162Z,24.92
2016-12-19T12:37:06.615Z,24.95
2016-12-19T12:38:10.073Z,24.91
2016-12-19T12:39:13.534Z,24.88
2016-12-19T12:40:16.996Z,24.88
2016-12-19T12:41:20.448Z,24.91
2016-12-19T12:42:23.936Z,24.95
2016-12-19T12:43:28.261Z,24.95
2016-12-19T12:44:36.036Z,24.84
2016-12-19T12:45:39.487Z,24.95
2016-12-19T12:46:42.924Z,25.01
2016-12-19T12:48:13.242Z,25.01
2016-12-19T12:49:16.696Z,25.03
2016-12-19T12:50:20.152Z,25.06
2016-12-19T12:51:23.603Z,24.98
2016-12-19T12:52:27.069Z,24.99
2016-12-19T12:53:37.033Z,24.98
2016-12-19T12:54:40.479Z,24.96
2016-12-19T12:55:43.935Z,25.03
2016-12-19T12:56:47.392Z,24.86
2016-12-19T12:57:57.971Z,24.88
2016-12-19T12:59:01.398Z,24.99
2016-12-19T13:00:04.845Z,25.03
2016-12-19T13:01:08.308Z,24.99
2016-12-19T13:02:11.754Z,24.99
2016-12-19T13:03:15.240Z,24.99
2016-12-19T13:04:18.702Z,24.98
2016-12-19T13:05:22.156Z,25.03
2016-12-19T13:06:52.693Z,24.99
2016-12-19T13:07:56.137Z,24.99
2016-12-19T13:08:59.619Z,25.07
2016-12-19T13:10:03.082Z,24.99
2016-12-19T13:11:06.527Z,25.04
2016-12-19T13:12:09.982Z,24.99
2016-12-19T13:13:13.451Z,24.96
2016-12-19T13:14:16.890Z,25.03
2016-12-19T13:15:20.346Z,25.03
2016-12-19T13:16:23.824Z,25.11
2016-12-19T13:17:27.276Z,25.08
2016-12-19T13:18:30.739Z,25.04
2016-12-19T13:19:34.200Z,25.03
2016-12-19T13:20:37.679Z,25.07
2016-12-19T13:21:41.126Z,25.03
2016-12-19T13:22:44.588Z,25.03
2016-12-19T13:23:48.048Z,25.1
2016-12-19T13:24:51.502Z,25.08
2016-12-19T13:25:54.955Z,25.01
2016-12-19T13:26:58.410Z,24.96
2016-12-19T13:28:01.877Z,25.04
2016-12-19T13:29:05.332Z,25.01
2016-12-19T13:30:08.787Z,25.03
2016-12-19T13:31:12.269Z,25.1
2016-12-19T13:32:15.732Z,25.13
2016-12-19T13:33:19.185Z,25.07
2016-12-19T13:34:22.626Z,25.11
2016-12-19T13:35:53.249Z,25.03
2016-12-19T13:36:56.719Z,25.17
2016-12-19T13:38:00.177Z,25.04
2016-12-19T13:39:03.642Z,25.08
2016-12-19T13:40:34.570Z,25.1
2016-12-19T13:41:38.039Z,25.07
2016-12-19T13:42:41.509Z,25.08
2016-12-19T13:43:44.955Z,25.07
2016-12-19T13:44:48.400Z,25.08
2016-12-19T13:46:18.137Z,25.06
2016-12-19T13:47:28.834Z,25.13
2016-12-19T13:48:32.285Z,25.16
2016-12-19T13:49:35.749Z,25.16
2016-12-19T13:50:39.204Z,25.16
2016-12-19T13:52:10.610Z,25.01
2016-12-19T13:53:14.065Z,25.04
2016-12-19T13:54:17.519Z,25.14
2016-12-19T13:55:21.008Z,25.08
2016-12-19T13:56:24.461Z,25.07
2016-12-19T13:57:27.915Z,25.13
2016-12-19T13:58:31.377Z,25.21
2016-12-19T13:59:34.850Z,25.16
2016-12-19T14:00:38.344Z,25.17
2016-12-19T14:01:41.785Z,25.17